Terminal Aerodrome Forecast
Issued by NWS

Home | Current Version | Previous Version | Text Only | Print | Product List | Glossary On
Versions: 1 2 3 4 5 6 7 8 9 10 11 12 13 14 15 16 17 18 19 20 21 22 23 24 25 26
000
FTUS43 KIND 200500
TAFHUF
TAF
KHUF 200520Z 2006/2106 VRB04KT 5SM BR SCT030
     FM201000 29002KT 1SM BR BCFG SCT010
      TEMPO 2010/2013 1/2SM FG VV001
     FM201500 25008KT P6SM SCT060
     FM210300 19002KT 6SM BR BKN150=

USA.gov is the U.S. government's official web portal to all federal, state and local government web resources and services.